createdAt,value
2024-05-09T00:00:43.975Z,5.00
2024-05-09T00:04:07.785Z,4.50
2024-05-09T00:07:10.918Z,5.00
2024-05-09T00:10:22.350Z,4.00
2024-05-09T00:13:32.103Z,5.00
2024-05-09T00:16:34.684Z,5.00
2024-05-09T00:19:37.675Z,5.00
2024-05-09T00:22:40.285Z,4.75
2024-05-09T00:25:43.811Z,3.50
2024-05-09T00:28:46.734Z,4.00
2024-05-09T00:31:49.792Z,4.50
2024-05-09T00:34:52.578Z,4.25
2024-05-09T00:37:55.743Z,4.00
2024-05-09T00:40:58.278Z,3.25
2024-05-09T00:44:01.376Z,5.00
2024-05-09T00:47:04.310Z,4.00
2024-05-09T00:50:12.737Z,5.00
2024-05-09T00:53:19.074Z,5.00
2024-05-09T00:56:22.445Z,5.00
2024-05-09T00:59:25.309Z,5.00
2024-05-09T01:02:31.217Z,4.50
2024-05-09T01:05:35.028Z,5.25
2024-05-09T01:08:38.942Z,4.00
2024-05-09T01:11:41.996Z,4.00
2024-05-09T01:14:45.150Z,4.00
2024-05-09T01:17:48.018Z,5.00
2024-05-09T01:20:51.382Z,4.00
2024-05-09T01:23:53.982Z,4.00
2024-05-09T01:26:56.890Z,4.67
2024-05-09T01:29:59.463Z,4.00
2024-05-09T01:33:02.689Z,5.00
2024-05-09T01:36:05.693Z,4.00
2024-05-09T01:39:08.748Z,4.33
2024-05-09T01:42:11.297Z,2.00
2024-05-09T01:45:14.283Z,5.33
2024-05-09T01:48:16.975Z,5.00
2024-05-09T01:51:20.188Z,5.00
2024-05-09T01:54:22.720Z,4.00
2024-05-09T01:57:25.805Z,5.00
2024-05-09T02:00:37.781Z,5.00
2024-05-09T02:03:47.195Z,4.00
2024-05-09T02:06:49.910Z,5.00
2024-05-09T02:09:55.783Z,4.00
2024-05-09T02:12:58.296Z,2.00
2024-05-09T02:16:01.286Z,4.33
2024-05-09T02:19:04.049Z,4.00
2024-05-09T02:22:07.168Z,1.00
2024-05-09T02:25:09.737Z,4.00
2024-05-09T02:28:12.793Z,4.00
2024-05-09T02:31:15.436Z,6.33
2024-05-09T02:34:18.544Z,4.00
2024-05-09T02:37:21.206Z,4.00
2024-05-09T02:40:33.234Z,5.00
2024-05-09T02:43:39.737Z,4.00
2024-05-09T02:46:42.749Z,4.67
2024-05-09T02:49:45.418Z,4.00
2024-05-09T02:52:48.561Z,2.00
2024-05-09T02:55:51.307Z,5.00
2024-05-09T02:58:54.389Z,4.00
2024-05-09T03:01:57.217Z,5.00
2024-05-09T03:05:00.930Z,5.00
2024-05-09T03:08:03.703Z,3.33
2024-05-09T03:11:06.963Z,5.00
2024-05-09T03:14:09.538Z,4.00
2024-05-09T03:17:12.570Z,5.00
2024-05-09T03:20:23.203Z,5.00
2024-05-09T03:23:28.315Z,2.00
2024-05-09T03:26:30.949Z,4.00
2024-05-09T03:29:34.182Z,2.67
2024-05-09T03:32:37.028Z,4.00
2024-05-09T03:35:40.251Z,4.00
2024-05-09T03:38:42.952Z,4.00
2024-05-09T03:41:46.003Z,4.00
2024-05-09T03:44:48.585Z,5.00
2024-05-09T03:47:51.955Z,4.00
2024-05-09T03:50:55.005Z,5.00
2024-05-09T03:53:58.463Z,4.00
2024-05-09T03:57:01.992Z,4.67
2024-05-09T04:00:11.893Z,5.00
2024-05-09T04:03:20.545Z,5.00
2024-05-09T04:06:24.873Z,4.00
2024-05-09T04:09:27.447Z,5.00
2024-05-09T04:12:30.776Z,4.67
2024-05-09T04:15:33.583Z,4.33
2024-05-09T04:18:37.108Z,4.00
2024-05-09T04:21:39.857Z,4.00
2024-05-09T04:24:43.041Z,1.00
2024-05-09T04:27:45.655Z,4.00
2024-05-09T04:30:48.768Z,4.00
2024-05-09T04:33:51.714Z,4.00
2024-05-09T04:36:54.876Z,4.00
2024-05-09T04:39:58.064Z,5.00
2024-05-09T04:43:01.524Z,4.33
2024-05-09T04:46:04.484Z,4.33
2024-05-09T04:49:07.825Z,4.33
2024-05-09T04:52:10.609Z,5.00
2024-05-09T04:55:13.802Z,6.33
2024-05-09T04:58:16.575Z,5.00
2024-05-09T05:01:19.872Z,5.00
2024-05-09T05:04:22.640Z,5.00
2024-05-09T05:07:25.702Z,5.00
2024-05-09T05:10:34.012Z,4.00
2024-05-09T05:13:41.595Z,5.33
2024-05-09T05:16:44.534Z,5.00
2024-05-09T05:19:47.892Z,6.00
2024-05-09T05:22:50.775Z,5.00
2024-05-09T05:25:54.522Z,6.00
2024-05-09T05:28:57.422Z,4.00
2024-05-09T05:32:00.783Z,2.00
2024-05-09T05:35:03.822Z,5.00
2024-05-09T05:38:08.424Z,5.00
2024-05-09T05:41:11.068Z,3.00
2024-05-09T05:44:16.084Z,5.00
2024-05-09T05:47:19.028Z,3.00
2024-05-09T05:50:27.929Z,5.00
2024-05-09T05:53:37.866Z,4.00
2024-05-09T05:56:41.098Z,5.00
2024-05-09T05:59:43.936Z,3.00
2024-05-09T06:02:47.664Z,2.00
2024-05-09T06:05:50.569Z,5.00
2024-05-09T06:08:54.457Z,4.25
2024-05-09T06:11:57.412Z,4.00
2024-05-09T06:15:01.077Z,3.00
2024-05-09T06:18:06.817Z,3.75
2024-05-09T06:21:10.341Z,2.00
2024-05-09T06:24:13.358Z,4.00
2024-05-09T06:27:16.415Z,3.00
2024-05-09T06:30:26.269Z,4.00
2024-05-09T06:33:38.177Z,4.00
2024-05-09T06:36:41.679Z,3.00
2024-05-09T06:39:46.405Z,2.75
2024-05-09T06:42:49.016Z,4.00
2024-05-09T06:45:54.747Z,4.00
2024-05-09T06:48:59.402Z,3.00
2024-05-09T06:52:02.580Z,3.00
2024-05-09T06:55:05.544Z,3.25
2024-05-09T06:58:11.828Z,3.00
2024-05-09T07:01:14.579Z,3.00
2024-05-09T07:04:18.034Z,4.00
2024-05-09T07:07:20.768Z,3.75
2024-05-09T07:10:29.032Z,3.50
2024-05-09T07:13:36.913Z,3.00
2024-05-09T07:16:40.342Z,3.00
2024-05-09T07:19:43.077Z,2.00
2024-05-09T07:22:46.240Z,3.00
2024-05-09T07:25:48.940Z,3.00
2024-05-09T07:28:52.052Z,3.00
2024-05-09T07:31:55.418Z,1.00
2024-05-09T07:34:58.597Z,2.00
2024-05-09T07:38:01.314Z,2.33
2024-05-09T07:41:04.597Z,2.00
2024-05-09T07:44:07.264Z,2.00
2024-05-09T07:48:27.492Z,2.00
2024-05-09T07:52:23.240Z,1.67
2024-05-09T07:54:00.680Z,2.00
2024-05-09T07:57:04.358Z,3.00
2024-05-09T08:00:11.630Z,3.00
2024-05-09T08:03:14.553Z,3.00
2024-05-09T08:06:17.960Z,3.00
2024-05-09T08:09:22.455Z,3.00
2024-05-09T08:12:25.909Z,2.00
2024-05-09T08:15:28.637Z,3.00
2024-05-09T08:18:33.013Z,2.33
2024-05-09T08:21:35.836Z,3.00
2024-05-09T08:24:39.117Z,2.67
2024-05-09T08:27:42.813Z,2.00
2024-05-09T08:30:46.617Z,2.33
2024-05-09T08:33:51.849Z,3.00
2024-05-09T08:36:57.538Z,2.00
2024-05-09T08:40:00.477Z,3.00
2024-05-09T08:43:08.248Z,2.33
2024-05-09T08:46:13.712Z,3.00
2024-05-09T08:49:17.282Z,2.00
2024-05-09T08:52:20.010Z,2.67
2024-05-09T08:55:23.029Z,3.00
2024-05-09T08:58:26.332Z,3.00
2024-05-09T09:01:31.797Z,2.00
2024-05-09T09:04:39.003Z,3.00
2024-05-09T09:07:48.562Z,3.00
2024-05-09T09:10:54.439Z,3.00
2024-05-09T09:13:57.787Z,2.67
2024-05-09T09:17:00.814Z,2.00
2024-05-09T09:20:04.527Z,3.00
2024-05-09T09:23:09.149Z,3.00
2024-05-09T09:26:16.918Z,3.00
2024-05-09T09:29:21.029Z,3.00
2024-05-09T09:32:28.736Z,3.67
2024-05-09T09:35:31.475Z,3.00
2024-05-09T09:38:37.940Z,2.33
2024-05-09T09:41:44.600Z,3.00
2024-05-09T09:44:54.634Z,5.67
2024-05-09T09:48:05.792Z,2.67
2024-05-09T09:51:09.602Z,1.67
2024-05-09T09:54:13.708Z,3.00
2024-05-09T09:57:16.902Z,3.00
2024-05-09T10:00:27.052Z,2.67
2024-05-09T10:03:35.520Z,2.33
2024-05-09T10:06:43.120Z,1.67
2024-05-09T10:09:46.638Z,2.33
2024-05-09T10:13:13.493Z,2.67
2024-05-09T10:16:22.412Z,1.67
2024-05-09T10:19:28.764Z,2.67
2024-05-09T10:22:33.306Z,2.67
2024-05-09T10:25:36.816Z,1.67
2024-05-09T10:28:45.308Z,1.67
2024-05-09T10:31:48.578Z,2.33
2024-05-09T10:35:07.989Z,2.00
2024-05-09T10:38:10.875Z,2.67
2024-05-09T10:41:14.194Z,1.67
2024-05-09T10:44:23.920Z,3.00
2024-05-09T10:47:27.428Z,5.00
2024-05-09T10:50:34.094Z,2.33
2024-05-09T10:53:42.802Z,2.33
2024-05-09T10:56:45.636Z,3.00
2024-05-09T10:59:51.927Z,3.00
2024-05-09T11:02:54.833Z,3.00
2024-05-09T11:05:58.508Z,4.33
2024-05-09T11:09:01.310Z,4.00
2024-05-09T11:12:05.530Z,3.00
2024-05-09T11:15:08.532Z,3.00
2024-05-09T11:18:24.752Z,2.00
2024-05-09T11:21:28.664Z,3.00
2024-05-09T11:24:32.838Z,2.00
2024-05-09T11:27:36.412Z,3.00
2024-05-09T11:30:39.647Z,3.00
2024-05-09T11:33:49.227Z,3.00
2024-05-09T11:36:53.166Z,2.00
2024-05-09T11:39:56.392Z,2.00
2024-05-09T11:42:59.958Z,3.00
2024-05-09T11:46:03.817Z,1.67
2024-05-09T11:49:07.916Z,2.67
2024-05-09T11:52:10.819Z,2.67
2024-05-09T11:55:14.549Z,2.00
2024-05-09T11:58:18.744Z,3.00
2024-05-09T12:01:25.305Z,2.00
2024-05-09T12:04:29.892Z,1.00
2024-05-09T12:07:33.184Z,0.00
2024-05-09T12:10:36.896Z,2.00
2024-05-09T12:13:40.523Z,2.00
2024-05-09T12:16:43.363Z,2.33
2024-05-09T12:19:46.697Z,1.00
2024-05-09T12:22:49.522Z,2.00
2024-05-09T12:25:52.849Z,3.00
2024-05-09T12:28:55.706Z,1.00
2024-05-09T12:31:59.006Z,2.00
2024-05-09T12:35:01.895Z,2.00
2024-05-09T12:38:05.355Z,2.67
2024-05-09T12:41:09.297Z,1.67
2024-05-09T12:44:12.774Z,2.00
2024-05-09T12:47:15.746Z,3.33
2024-05-09T12:50:28.781Z,2.67
2024-05-09T12:53:36.241Z,3.00
2024-05-09T12:56:39.433Z,2.33
2024-05-09T12:59:42.807Z,2.00
2024-05-09T13:02:45.922Z,2.33
2024-05-09T13:05:50.129Z,2.00
2024-05-09T13:08:53.284Z,2.00
2024-05-09T13:11:56.067Z,2.00
2024-05-09T13:14:59.227Z,2.00
2024-05-09T13:18:03.497Z,2.00
2024-05-09T13:21:07.117Z,3.00
2024-05-09T13:24:09.645Z,2.00
2024-05-09T13:27:12.809Z,2.00
2024-05-09T13:30:25.402Z,3.00
2024-05-09T13:33:33.516Z,2.00
2024-05-09T13:36:36.455Z,2.00
2024-05-09T13:39:40.359Z,2.00
2024-05-09T13:42:43.928Z,2.33
2024-05-09T13:45:48.165Z,2.33
2024-05-09T13:48:51.069Z,2.00
2024-05-09T13:51:54.398Z,2.00
2024-05-09T13:54:57.111Z,1.00
2024-05-09T13:58:00.756Z,2.00
2024-05-09T14:01:03.691Z,2.00
2024-05-09T14:04:10.122Z,1.00
2024-05-09T14:07:13.245Z,2.00
2024-05-09T14:10:23.222Z,2.00
2024-05-09T14:13:31.475Z,2.00
2024-05-09T14:16:36.736Z,3.00
2024-05-09T14:19:39.478Z,2.33
2024-05-09T14:22:42.709Z,3.00
2024-05-09T14:25:48.184Z,2.00
2024-05-09T14:28:53.536Z,2.00
2024-05-09T14:31:56.290Z,2.00
2024-05-09T14:34:59.431Z,1.00
2024-05-09T14:38:02.324Z,1.00
2024-05-09T14:41:09.670Z,2.00
2024-05-09T14:44:13.021Z,2.00
2024-05-09T14:47:18.765Z,2.00
2024-05-09T14:50:28.080Z,2.67
2024-05-09T14:53:38.547Z,3.00
2024-05-09T14:56:41.711Z,2.00
2024-05-09T14:59:44.745Z,2.67
2024-05-09T15:02:48.049Z,2.00
2024-05-09T15:05:51.944Z,2.00
2024-05-09T15:08:57.733Z,1.67
2024-05-09T15:12:01.181Z,2.00
2024-05-09T15:15:04.808Z,2.00
2024-05-09T15:18:07.986Z,2.00
2024-05-09T15:21:10.857Z,2.00
2024-05-09T15:24:13.993Z,1.33
2024-05-09T15:27:17.549Z,2.00
2024-05-09T15:30:29.798Z,1.67
2024-05-09T15:33:34.994Z,1.67
2024-05-09T15:36:39.783Z,2.00
2024-05-09T15:39:43.669Z,2.00
2024-05-09T15:42:47.231Z,2.00
2024-05-09T15:45:49.961Z,1.00
2024-05-09T15:48:53.233Z,1.67
2024-05-09T15:51:56.044Z,2.33
2024-05-09T15:54:59.212Z,2.00
2024-05-09T15:58:02.801Z,1.67
2024-05-09T16:01:06.736Z,2.33
2024-05-09T16:04:12.445Z,1.67
2024-05-09T16:07:15.649Z,1.33
2024-05-09T16:10:23.151Z,2.00
2024-05-09T16:13:29.335Z,2.00
2024-05-09T16:16:32.388Z,2.00
2024-05-09T16:19:35.626Z,2.33
2024-05-09T16:22:38.300Z,1.67
2024-05-09T16:25:46.462Z,1.67
2024-05-09T16:28:49.270Z,1.67
2024-05-09T16:31:52.456Z,1.33
2024-05-09T16:34:55.258Z,6.00
2024-05-09T16:37:58.588Z,4.00
2024-05-09T16:41:01.418Z,5.33
2024-05-09T16:44:04.626Z,8.00
2024-05-09T16:47:08.261Z,4.33
2024-05-09T16:50:12.929Z,6.00
2024-05-09T16:53:19.561Z,4.33
2024-05-09T16:56:26.563Z,2.00
2024-05-09T16:59:29.218Z,5.00
2024-05-09T17:02:32.698Z,5.33
2024-05-09T17:05:36.213Z,5.33
2024-05-09T17:08:41.354Z,2.67
2024-05-09T17:11:44.020Z,5.00
2024-05-09T17:14:47.291Z,5.33
2024-05-09T17:17:50.149Z,5.67
2024-05-09T17:20:53.307Z,4.00
2024-05-09T17:23:56.159Z,2.00
2024-05-09T17:27:00.643Z,2.00
2024-05-09T17:30:06.173Z,4.00
2024-05-09T17:33:11.225Z,3.00
2024-05-09T17:36:16.420Z,4.00
2024-05-09T17:39:19.606Z,5.00
2024-05-09T17:42:22.163Z,3.00
2024-05-09T17:45:25.383Z,3.67
2024-05-09T17:48:28.247Z,4.00
2024-05-09T17:51:31.833Z,2.33
2024-05-09T17:54:34.748Z,2.67
2024-05-09T17:57:38.059Z,2.33
2024-05-09T18:00:42.426Z,3.00
2024-05-09T18:03:46.659Z,3.00
2024-05-09T18:06:49.618Z,2.00
2024-05-09T18:09:52.844Z,2.00
2024-05-09T18:12:55.638Z,1.75
2024-05-09T18:15:59.166Z,2.00
2024-05-09T18:19:01.963Z,2.00
2024-05-09T18:22:05.713Z,2.00
2024-05-09T18:25:08.852Z,1.50
2024-05-09T18:28:12.645Z,3.00
2024-05-09T18:31:16.027Z,2.00
2024-05-09T18:34:19.700Z,2.25
2024-05-09T18:37:23.675Z,2.00
2024-05-09T18:40:33.318Z,1.50
2024-05-09T18:43:44.968Z,2.25
2024-05-09T18:46:53.146Z,2.00
2024-05-09T18:49:56.758Z,2.50
2024-05-09T18:53:00.247Z,2.00
2024-05-09T18:56:04.891Z,2.00
2024-05-09T18:59:09.655Z,1.50
2024-05-09T19:02:13.657Z,2.00
2024-05-09T19:05:21.608Z,1.75
2024-05-09T19:08:25.791Z,2.25
2024-05-09T19:11:30.415Z,2.25
2024-05-09T19:14:33.998Z,2.00
2024-05-09T19:17:38.664Z,2.00
2024-05-09T19:20:42.938Z,2.00
2024-05-09T19:23:52.080Z,2.00
2024-05-09T19:26:58.640Z,3.00
2024-05-09T19:30:03.222Z,3.75
2024-05-09T19:33:11.927Z,3.00
2024-05-09T19:36:20.598Z,4.00
2024-05-09T19:39:26.826Z,4.25
2024-05-09T19:42:35.136Z,4.00
2024-05-09T19:45:40.588Z,3.00
2024-05-09T19:48:45.604Z,3.00
2024-05-09T19:51:50.042Z,3.25
2024-05-09T19:54:54.974Z,2.00
2024-05-09T19:57:58.942Z,3.00
2024-05-09T20:01:04.062Z,3.00
2024-05-09T20:04:08.061Z,3.00
2024-05-09T20:07:14.005Z,2.00
2024-05-09T20:10:23.731Z,2.75
2024-05-09T20:13:34.452Z,2.00
2024-05-09T20:16:38.854Z,3.00
2024-05-09T20:19:47.790Z,2.75
2024-05-09T20:22:51.940Z,2.00
2024-05-09T20:25:57.267Z,2.75
2024-05-09T20:29:04.545Z,2.00
2024-05-09T20:32:09.203Z,3.50
2024-05-09T20:35:12.823Z,3.00
2024-05-09T20:38:17.542Z,3.00
2024-05-09T20:41:21.076Z,2.00
2024-05-09T20:44:25.089Z,3.00
2024-05-09T20:47:28.258Z,2.00
2024-05-09T20:50:38.351Z,2.75
2024-05-09T20:53:44.089Z,2.00
2024-05-09T20:56:47.547Z,2.00
2024-05-09T20:59:50.374Z,3.25
2024-05-09T21:02:53.548Z,2.50
2024-05-09T21:05:56.493Z,2.50
2024-05-09T21:08:59.663Z,3.00
2024-05-09T21:12:02.480Z,2.00
2024-05-09T21:15:06.124Z,2.50
2024-05-09T21:18:09.051Z,2.50
2024-05-09T21:21:12.538Z,3.00
2024-05-09T21:24:15.274Z,3.00
2024-05-09T21:27:19.401Z,4.25
2024-05-09T21:30:32.481Z,4.50
2024-05-09T21:33:43.667Z,3.00
2024-05-09T21:36:46.452Z,3.50
2024-05-09T21:39:49.633Z,5.00
2024-05-09T21:42:52.266Z,3.00
2024-05-09T21:45:55.376Z,22.00
2024-05-09T21:48:58.443Z,25.00
2024-05-09T21:52:01.565Z,40.00
2024-05-09T21:55:04.327Z,43.67
2024-05-09T21:58:07.467Z,26.67
2024-05-09T22:01:10.749Z,37.33
2024-05-09T22:04:14.122Z,34.67
2024-05-09T22:07:17.086Z,31.00
2024-05-09T22:10:26.236Z,32.67
2024-05-09T22:13:33.735Z,34.00
2024-05-09T22:16:41.140Z,28.67
2024-05-09T22:19:47.503Z,32.33
2024-05-09T22:22:50.814Z,25.67
2024-05-09T22:25:53.549Z,16.33
2024-05-09T22:28:56.580Z,30.33
2024-05-09T22:31:59.386Z,30.00
2024-05-09T22:35:02.834Z,32.33
2024-05-09T22:38:05.883Z,29.00
2024-05-09T22:41:09.677Z,32.00
2024-05-09T22:44:12.333Z,29.33
2024-05-09T22:47:15.399Z,30.00
2024-05-09T22:50:26.341Z,27.33
2024-05-09T22:53:30.251Z,28.00
2024-05-09T22:56:32.947Z,27.33
2024-05-09T22:59:35.938Z,25.33
2024-05-09T23:02:38.619Z,25.00
2024-05-09T23:05:41.739Z,25.00
2024-05-09T23:08:44.387Z,25.00
2024-05-09T23:11:47.521Z,22.33
2024-05-09T23:14:50.174Z,25.00
2024-05-09T23:17:53.520Z,24.00
2024-05-09T23:20:56.251Z,1.00
2024-05-09T23:23:59.289Z,20.00
2024-05-09T23:27:02.015Z,18.67
2024-05-09T23:30:07.662Z,18.00
2024-05-09T23:33:13.899Z,19.00
2024-05-09T23:36:18.072Z,15.00
2024-05-09T23:39:20.651Z,18.33
2024-05-09T23:42:23.658Z,15.67
2024-05-09T23:45:26.264Z,17.33
2024-05-09T23:48:29.453Z,16.00
2024-05-09T23:51:32.122Z,15.67
2024-05-09T23:54:35.415Z,15.00
2024-05-09T23:57:38.304Z,15.00
